SWTH weather

Fazenda Smith
Bonfim, Roraima, Brazil

Public forecast

Using degrees Celsius for public forecast. Weather courtesy of forecast.io.

METAR (pilot weather report)

Closest report is Atlas Brasil Cantanhede Airport, 11.8 nm (21.9 km) WSW. Retrieved 2019/03/25 14:00 UTC (20 minutes ago):

SBBV 251400Z 10016KT 9999 FEW035 32/19 Q1014

TAF (pilot weather forecast)

Closest forecast is Atlas Brasil Cantanhede Airport, 11.8 nm (21.9 km) WSW. Retrieved 2019/03/25 12:00 UTC (2 hours ago):

TAF SBBV 251000Z 2512/2612 09013KT CAVOK TX36/2520Z TN26/2609Z BECMG 2512/2514 09016KT BECMG 2514/2516 09013KT 9999 SCT035 BECMG 2520/2522 09010KT BECMG 2600/2602 CAVOK RMK PFD